This is the latest recevied weather packets stored in our database for station/object Reichnbch. If no packets are shown the sender has not sent any weather packets the latest 10 day(s).
| Time | Temp. | Humidity | Pressure | Rain* | Wind** | Luminosity | Snow |
|---|---|---|---|---|---|---|---|
| 1777712530 | 18.33° C | 49% | 1023.6 hPa | 0 mm | - | - | - |
| 1777710731 | 16.67° C | 51% | 1023.7 hPa | 0 mm | - | - | - |
| 1777708931 | 15.56° C | 60% | 1023.7 hPa | 0 mm | - | - | - |
| 1777707130 | 13.33° C | 66% | 1023.9 hPa | 0 mm | - | - | - |
| 1777705333 | 11.11° C | 70% | 1024.1 hPa | 0 mm | - | - | - |
| 1777703532 | 10.56° C | 74% | 1024.1 hPa | 0 mm | - | - | - |
| 1777701731 | 8.89° C | 81% | 1024.2 hPa | 0 mm | - | - | - |
| 1777699931 | 6.67° C | 84% | 1024.2 hPa | 0 mm | - | - | - |
| 1777698131 | 5.56° C | 84% | 1024.1 hPa | 0 mm | - | - | - |
| 1777696331 | 6.67° C | 82% | 1024.1 hPa | 0 mm | - | - | - |
| 1777694533 | 6.11° C | 81% | 1024 hPa | 0 mm | - | - | - |
| 1777692731 | 6.67° C | 79% | 1023.7 hPa | 0 mm | - | - | - |
| 1777690931 | 7.22° C | 76% | 1023.7 hPa | 0 mm | - | - | - |
| 1777689134 | 7.78° C | 76% | 1024.1 hPa | 0 mm | - | - | - |
| 1777687332 | 8.33° C | 75% | 1024.3 hPa | 0 mm | - | - | - |
| 1777685531 | 8.89° C | 73% | 1024.5 hPa | 0 mm | - | - | - |
| 1777683731 | 9.44° C | 69% | 1024.7 hPa | 0 mm | - | - | - |
| 1777681929 | 10.56° C | 66% | 1024.9 hPa | 0 mm | - | - | - |
| 1777680129 | 11.11° C | 62% | 1025.1 hPa | 0 mm | - | - | - |
| 1777678330 | 12.22° C | 60% | 1025.1 hPa | 0 mm | - | - | - |
| 1777676530 | 12.78° C | 57% | 1025.2 hPa | 0 mm | - | - | - |
| 1777674730 | 13.89° C | 53% | 1025.2 hPa | 0 mm | - | - | - |
| 1777672931 | 14.44° C | 51% | 1025.2 hPa | 0 mm | - | - | - |
| 1777671130 | 15.56° C | 48% | 1025 hPa | 0 mm | - | - | - |
| 1777669330 | 16.11° C | 45% | 1025 hPa | 0 mm | - | - | - |
* Rain since midnight (hover to see other rain measurements)
** Current wind speed in m/s (hover to see current wind gust speed)